Terminal Aerodrome Forecast
Issued by NWS Cleveland, OH

Home | Current Version | Previous Version | Graphics & Text | Print | Product List | Glossary On
Versions: 1 2 3 4 5 6 7 8 9 10 11 12 13 14 15 16 17 18 19 20 21
000
FTUS41 KCLE 281737
TAFCAK
TAF
KCAK 281737Z 2818/2918 30014KT P6SM VCSH BKN015 OVC035
      TEMPO 2820/2822 SCT015 OVC035
     FM282200 32010KT P6SM BKN035
     FM290300 VRB04KT P6SM SCT120 BKN250
     FM291500 16010KT P6SM VCSH BKN040 OVC080=

USA.gov is the U.S. government's official web portal to all federal, state and local government web resources and services.